Time;durP1;ratioP1;P1;durP2;ratioP2;P2;SDS_P1;SDS_P2;PMS_P1;PMS_P2;Temp;Humidity;BMP_temperature;BMP_pressure;BME280_temperature;BME280_humidity;BME280_pressure;Samples;Min_cycle;Max_cycle;Signal;HPM_P1;HPM_P2
2022/11/25 00:01:27;;;;;;;70.03;32.60;;;;;;;;;;5057587;28;20057;-78
2022/11/25 00:04:12;;;;;;;71.63;32.78;;;;;;;;;;5060342;28;20045;-79
2022/11/25 00:06:57;;;;;;;45.05;24.55;;;;;;;;;;5053652;28;20041;-79
2022/11/25 00:09:43;;;;;;;49.53;25.52;;;;;;;;;;5060146;28;20049;-80
2022/11/25 00:12:27;;;;;;;71.90;32.70;;;;;;;;;;5060467;28;20045;-81
2022/11/25 00:15:12;;;;;;;63.80;32.20;;;;;;;;;;5060091;28;20045;-80
2022/11/25 00:17:57;;;;;;;61.80;31.10;;;;;;;;;;5059143;28;20049;-80
2022/11/25 00:20:42;;;;;;;56.63;29.90;;;;;;;;;;5059872;28;20048;-79
2022/11/25 00:23:28;;;;;;;48.30;25.58;;;;;;;;;;5059628;28;20045;-82
2022/11/25 00:26:15;;;;;;;47.80;25.77;;;;;;;;;;5060429;28;20472;-77
2022/11/25 00:29:04;;;;;;;38.65;20.73;;;;;;;;;;5060059;28;20479;-79
2022/11/25 00:31:49;;;;;;;40.08;22.13;;;;;;;;;;5059297;28;20053;-79
2022/11/25 00:34:35;;;;;;;39.38;20.83;;;;;;;;;;5053822;28;20049;-80
2022/11/25 00:37:21;;;;;;;39.03;20.95;;;;;;;;;;5053261;28;20053;-79
2022/11/25 00:40:07;;;;;;;61.70;31.52;;;;;;;;;;5059943;28;20045;-77
2022/11/25 00:45:55;;;;;;;43.10;21.98;;;;;;;;;;5053345;28;20041;-77
2022/11/25 00:48:39;;;;;;;;;;;;;;;;;;5060082;28;20057;-77
2022/11/25 00:51:24;;;;;;;39.10;18.65;;;;;;;;;;5058604;28;19917;-77
2022/11/25 00:54:11;;;;;;;48.00;23.95;;;;;;;;;;5059378;28;20075;-79
2022/11/25 00:56:56;;;;;;;41.08;19.60;;;;;;;;;;5057797;28;20415;-77
2022/11/25 00:59:41;;;;;;;36.35;18.02;;;;;;;;;;5059915;28;20430;-77
2022/11/25 01:02:27;;;;;;;39.60;18.05;;;;;;;;;;5052297;28;20057;-78
2022/11/25 01:05:12;;;;;;;30.92;16.20;;;;;;;;;;5058095;28;20044;-78
2022/11/25 01:07:57;;;;;;;45.38;22.90;;;;;;;;;;5053095;28;20041;-79
2022/11/25 01:10:43;;;;;;;34.22;18.63;;;;;;;;;;5056436;28;20048;-80
2022/11/25 01:13:29;;;;;;;32.40;17.20;;;;;;;;;;5063213;28;20052;-79
2022/11/25 01:16:17;;;;;;;39.25;18.08;;;;;;;;;;5056522;28;20049;-77
2022/11/25 01:19:05;;;;;;;30.45;16.90;;;;;;;;;;5062046;28;20048;-78
2022/11/25 01:21:50;;;;;;;29.40;15.35;;;;;;;;;;5057149;28;20041;-80
2022/11/25 01:24:36;;;;;;;23.88;12.25;;;;;;;;;;5062101;28;20049;-77
2022/11/25 01:27:21;;;;;;;27.35;13.93;;;;;;;;;;5063063;28;20049;-77
2022/11/25 01:30:08;;;;;;;25.70;13.60;;;;;;;;;;5063212;28;20045;-79
2022/11/25 01:32:54;;;;;;;25.80;12.90;;;;;;;;;;5061834;28;20430;-80
2022/11/25 01:35:39;;;;;;;22.70;10.70;;;;;;;;;;5056083;28;20053;-78
2022/11/25 01:38:25;;;;;;;18.58;10.52;;;;;;;;;;5049401;28;20044;-77
2022/11/25 01:41:13;;;;;;;23.80;11.13;;;;;;;;;;5057742;28;20398;-79
2022/11/25 01:44:06;;;;;;;26.88;11.65;;;;;;;;;;5068173;28;20053;-77
2022/11/25 01:47:15;;;;;;;26.83;13.27;;;;;;;;;;5065862;28;20048;-78
2022/11/25 01:50:04;;;;;;;23.55;12.85;;;;;;;;;;5057111;28;20049;-79
2022/11/25 01:52:54;;;;;;;26.90;11.90;;;;;;;;;;5048346;28;20052;-78
2022/11/25 01:55:47;;;;;;;22.35;11.35;;;;;;;;;;5055866;28;20040;-77
2022/11/25 01:58:36;;;;;;;21.63;10.90;;;;;;;;;;5061638;28;20049;-80
2022/11/25 02:01:21;;;;;;;18.70;9.60;;;;;;;;;;5060647;28;20045;-78
2022/11/25 02:04:10;;;;;;;14.93;8.57;;;;;;;;;;5062393;28;20053;-79
2022/11/25 02:07:00;;;;;;;11.00;6.97;;;;;;;;;;5054681;28;20480;-80
2022/11/25 02:09:47;;;;;;;9.68;6.40;;;;;;;;;;5061170;28;20403;-80
2022/11/25 02:12:35;;;;;;;10.52;6.05;;;;;;;;;;5061019;28;20471;-78
2022/11/25 02:15:21;;;;;;;10.32;6.03;;;;;;;;;;5055399;28;20045;-78
2022/11/25 02:18:07;;;;;;;8.50;5.45;;;;;;;;;;5055500;28;20049;-78
2022/11/25 02:20:53;;;;;;;10.70;4.95;;;;;;;;;;5055528;28;20464;-79
2022/11/25 02:23:53;;;;;;;13.60;6.32;;;;;;;;;;5055132;28;20056;-78
2022/11/25 02:26:41;;;;;;;17.75;8.23;;;;;;;;;;5055135;28;20041;-77
2022/11/25 02:29:27;;;;;;;13.82;7.40;;;;;;;;;;5060447;28;20053;-79
2022/11/25 02:32:12;;;;;;;14.55;8.75;;;;;;;;;;5060929;28;20399;-79
2022/11/25 02:34:58;;;;;;;10.30;5.55;;;;;;;;;;5055099;28;20049;-80
2022/11/25 02:37:44;;;;;;;8.88;5.47;;;;;;;;;;5061931;28;20040;-79
2022/11/25 02:40:30;;;;;;;10.05;5.15;;;;;;;;;;5061133;28;20403;-78
2022/11/25 02:43:19;;;;;;;8.07;4.20;;;;;;;;;;5054944;28;20049;-79
2022/11/25 02:46:10;;;;;;;10.45;5.20;;;;;;;;;;5055065;28;20049;-78
2022/11/25 02:48:58;;;;;;;11.85;4.28;;;;;;;;;;5061103;28;20049;-81
2022/11/25 02:51:44;;;;;;;12.35;5.18;;;;;;;;;;5060559;28;20045;-80
2022/11/25 02:54:30;;;;;;;10.55;4.97;;;;;;;;;;5061282;28;20048;-79
2022/11/25 02:57:15;;;;;;;143.73;73.68;;;;;;;;;;5060159;28;20045;-79
2022/11/25 03:00:03;;;;;;;38.42;19.27;;;;;;;;;;5054264;28;20395;-78
2022/11/25 03:02:53;;;;;;;65.80;35.33;;;;;;;;;;5055292;28;20053;-78
2022/11/25 03:05:38;;;;;;;15.93;10.25;;;;;;;;;;5059957;28;20041;-80
2022/11/25 03:08:24;;;;;;;15.00;7.65;;;;;;;;;;5054608;28;20036;-81
2022/11/25 03:11:10;;;;;;;10.63;4.82;;;;;;;;;;5060408;28;20395;-81
2022/11/25 03:13:56;;;;;;;10.73;4.20;;;;;;;;;;5060049;28;20049;-79
2022/11/25 03:16:42;;;;;;;9.68;6.10;;;;;;;;;;5060172;28;20049;-79
2022/11/25 03:19:28;;;;;;;8.90;4.47;;;;;;;;;;5060679;28;20061;-80
2022/11/25 03:22:13;;;;;;;10.73;5.50;;;;;;;;;;5060076;28;20048;-80
2022/11/25 03:24:59;;;;;;;25.83;11.43;;;;;;;;;;5060797;28;20407;-81
2022/11/25 03:27:45;;;;;;;10.98;5.63;;;;;;;;;;5054113;28;20053;-80
2022/11/25 03:30:31;;;;;;;12.23;6.82;;;;;;;;;;5060074;28;20053;-79
2022/11/25 03:33:19;;;;;;;19.05;9.20;;;;;;;;;;5059676;28;20048;-80
2022/11/25 03:36:05;;;;;;;8.25;4.90;;;;;;;;;;5059838;28;20049;-81
2022/11/25 03:38:51;;;;;;;9.40;4.85;;;;;;;;;;5061217;28;20041;-82
2022/11/25 03:41:36;;;;;;;10.55;6.28;;;;;;;;;;5065784;28;20045;-79
2022/11/25 03:44:22;;;;;;;14.45;7.53;;;;;;;;;;5060952;28;20041;-79
2022/11/25 03:47:07;;;;;;;18.42;7.22;;;;;;;;;;5065557;28;20052;-81
2022/11/25 03:49:53;;;;;;;15.07;7.38;;;;;;;;;;5065740;28;20483;-79
2022/11/25 03:52:38;;;;;;;9.90;5.38;;;;;;;;;;5066289;28;20049;-80
2022/11/25 03:55:24;;;;;;;10.02;5.68;;;;;;;;;;5059862;28;20391;-79
2022/11/25 03:58:09;;;;;;;7.47;4.82;;;;;;;;;;5060419;28;20057;-81
2022/11/25 04:00:59;;;;;;;8.30;4.53;;;;;;;;;;5058969;28;20049;-79
2022/11/25 04:03:45;;;;;;;13.68;5.53;;;;;;;;;;5059169;28;20045;-81
2022/11/25 04:06:31;;;;;;;16.42;7.93;;;;;;;;;;5059042;28;20483;-80
2022/11/25 04:09:17;;;;;;;18.17;8.52;;;;;;;;;;5077288;28;20049;-81
2022/11/25 04:15:14;;;;;;;14.65;8.27;;;;;;;;;;5059010;28;20041;-80
2022/11/25 04:18:00;;;;;;;20.60;9.95;;;;;;;;;;5059176;28;20045;-80
2022/11/25 04:20:46;;;;;;;14.40;8.52;;;;;;;;;;5045255;28;20040;-79
2022/11/25 04:23:32;;;;;;;16.85;9.43;;;;;;;;;;5055456;28;20041;-78
2022/11/25 04:26:21;;;;;;;17.85;9.98;;;;;;;;;;5061609;28;20041;-78
2022/11/25 04:29:06;;;;;;;24.73;12.45;;;;;;;;;;5059847;28;20048;-77
2022/11/25 04:31:53;;;;;;;23.23;13.15;;;;;;;;;;5090412;28;20041;-79
2022/11/25 04:34:38;;;;;;;22.67;12.82;;;;;;;;;;5089129;28;20487;-80
2022/11/25 04:37:24;;;;;;;28.92;16.00;;;;;;;;;;5059273;28;20049;-79
2022/11/25 04:40:10;;;;;;;29.00;12.60;;;;;;;;;;5059073;28;20049;-81
2022/11/25 04:42:55;;;;;;;23.65;12.60;;;;;;;;;;5059360;28;20049;-78
2022/11/25 04:45:41;;;;;;;18.85;9.82;;;;;;;;;;5063183;28;20040;-81
2022/11/25 04:48:27;;;;;;;15.68;8.68;;;;;;;;;;5064906;28;20053;-78
2022/11/25 04:51:13;;;;;;;16.75;9.00;;;;;;;;;;5063932;28;20048;-78
2022/11/25 04:53:59;;;;;;;11.13;7.25;;;;;;;;;;5062770;28;20202;-80
2022/11/25 04:56:45;;;;;;;13.75;7.10;;;;;;;;;;5063678;28;20495;-78
2022/11/25 04:59:39;;;;;;;12.25;7.03;;;;;;;;;;5063123;28;20053;-79
2022/11/25 05:02:26;;;;;;;13.38;8.57;;;;;;;;;;5058493;28;20053;-79
2022/11/25 05:05:15;;;;;;;17.55;9.05;;;;;;;;;;5062560;28;20049;-80
2022/11/25 05:08:01;;;;;;;19.08;10.20;;;;;;;;;;5056899;28;20045;-81
2022/11/25 05:10:46;;;;;;;20.35;12.00;;;;;;;;;;5063729;28;20048;-81
2022/11/25 05:13:31;;;;;;;25.27;12.80;;;;;;;;;;5058006;28;20053;-82
2022/11/25 05:16:17;;;;;;;23.77;12.98;;;;;;;;;;5063802;28;20048;-80
2022/11/25 05:19:02;;;;;;;25.08;12.82;;;;;;;;;;5058145;28;20391;-80
2022/11/25 05:21:48;;;;;;;21.38;12.35;;;;;;;;;;5063304;28;20463;-79
2022/11/25 05:24:34;;;;;;;18.80;11.13;;;;;;;;;;5063212;28;20480;-82
2022/11/25 05:27:20;;;;;;;18.55;10.68;;;;;;;;;;5063707;28;20049;-81
2022/11/25 05:30:07;;;;;;;16.85;9.23;;;;;;;;;;5063059;28;20045;-79
2022/11/25 05:32:52;;;;;;;20.17;9.98;;;;;;;;;;5053341;28;20049;-79
2022/11/25 05:35:38;;;;;;;12.68;7.30;;;;;;;;;;5056214;28;20049;-79
2022/11/25 05:38:25;;;;;;;15.07;8.90;;;;;;;;;;5045899;28;20423;-81
2022/11/25 05:41:10;;;;;;;14.82;9.05;;;;;;;;;;5062108;28;20484;-81
2022/11/25 05:43:58;;;;;;;17.85;9.98;;;;;;;;;;5061465;28;20041;-79
2022/11/25 05:46:45;;;;;;;19.90;9.35;;;;;;;;;;5061802;28;20045;-79
2022/11/25 05:49:31;;;;;;;23.70;14.18;;;;;;;;;;5062358;28;20052;-79
2022/11/25 05:52:16;;;;;;;24.10;13.40;;;;;;;;;;5060674;28;20040;-80
2022/11/25 05:55:10;;;;;;;30.98;14.82;;;;;;;;;;5044052;28;20061;-81
2022/11/25 05:57:57;;;;;;;39.70;17.70;;;;;;;;;;5060429;28;20487;-79
2022/11/25 06:00:43;;;;;;;35.58;16.95;;;;;;;;;;5041682;28;20045;-82
2022/11/25 06:03:29;;;;;;;33.95;13.77;;;;;;;;;;5046475;28;20041;-78
2022/11/25 06:06:14;;;;;;;44.35;18.48;;;;;;;;;;5055058;28;20049;-80
2022/11/25 06:09:00;;;;;;;39.45;18.23;;;;;;;;;;5048561;28;20050;-79
2022/11/25 06:11:47;;;;;;;47.88;20.20;;;;;;;;;;5041187;28;20045;-79
2022/11/25 06:14:33;;;;;;;42.10;18.33;;;;;;;;;;5041369;28;20053;-80
2022/11/25 06:17:18;;;;;;;20.50;10.55;;;;;;;;;;5039687;28;20049;-79
2022/11/25 06:20:11;;;;;;;22.75;11.90;;;;;;;;;;5026542;28;20041;-80
2022/11/25 06:22:57;;;;;;;24.08;11.45;;;;;;;;;;5032831;28;20041;-80
2022/11/25 06:25:48;;;;;;;27.55;14.63;;;;;;;;;;5039070;28;20037;-78
2022/11/25 06:28:34;;;;;;;30.50;15.18;;;;;;;;;;5039364;28;20400;-80
2022/11/25 06:31:22;;;;;;;30.55;17.13;;;;;;;;;;5034481;28;20049;-80
2022/11/25 06:34:18;;;;;;;32.08;17.23;;;;;;;;;;5040676;28;20049;-79
2022/11/25 06:37:04;;;;;;;34.00;17.65;;;;;;;;;;5040834;28;20045;-80
2022/11/25 06:39:49;;;;;;;32.72;19.35;;;;;;;;;;5041700;28;20049;-78
2022/11/25 06:42:37;;;;;;;39.63;21.77;;;;;;;;;;5042080;28;20061;-80
2022/11/25 06:45:23;;;;;;;39.10;19.55;;;;;;;;;;5042401;28;20053;-79
2022/11/25 06:48:08;;;;;;;33.15;18.90;;;;;;;;;;5043906;28;20049;-80
2022/11/25 06:50:56;;;;;;;40.88;23.55;;;;;;;;;;5045658;28;20053;-79
2022/11/25 06:53:42;;;;;;;54.10;29.70;;;;;;;;;;5045496;28;20057;-78
2022/11/25 06:56:27;;;;;;;64.47;33.20;;;;;;;;;;5039603;28;20051;-79
2022/11/25 06:59:13;;;;;;;47.55;26.55;;;;;;;;;;5035953;28;20037;-79
2022/11/25 07:01:58;;;;;;;37.45;21.13;;;;;;;;;;5034640;28;20045;-78
2022/11/25 07:04:43;;;;;;;34.00;19.33;;;;;;;;;;5041825;28;20041;-80
2022/11/25 07:07:29;;;;;;;35.47;19.98;;;;;;;;;;5042704;28;20050;-80
2022/11/25 07:10:14;;;;;;;16.92;8.95;;;;;;;;;;5045251;28;20053;-76
2022/11/25 07:13:00;;;;;;;18.90;9.77;;;;;;;;;;5045115;28;20054;-80
2022/11/25 07:15:46;;;;;;;14.20;7.82;;;;;;;;;;5035171;28;20049;-79
2022/11/25 07:18:34;;;;;;;24.80;12.77;;;;;;;;;;5058747;28;20048;-79
2022/11/25 07:21:22;;;;;;;24.55;12.52;;;;;;;;;;5060156;28;20049;-81
2022/11/25 07:24:09;;;;;;;20.40;10.57;;;;;;;;;;5050875;28;20391;-78
2022/11/25 07:26:54;;;;;;;17.13;9.23;;;;;;;;;;5053993;28;20392;-78
2022/11/25 07:29:40;;;;;;;17.55;9.30;;;;;;;;;;5059962;28;20048;-79
2022/11/25 07:32:25;;;;;;;17.20;9.40;;;;;;;;;;5060578;28;20053;-79
2022/11/25 07:35:10;;;;;;;17.60;9.65;;;;;;;;;;5060633;28;20431;-78
2022/11/25 07:37:55;;;;;;;18.70;11.27;;;;;;;;;;5059834;28;20049;-79
2022/11/25 07:40:41;;;;;;;18.20;11.45;;;;;;;;;;5059688;28;20053;-80
2022/11/25 07:43:27;;;;;;;19.08;9.65;;;;;;;;;;5060140;28;20399;-80
2022/11/25 07:46:17;;;;;;;4.82;3.20;;;;;;;;;;5059385;28;20048;-79
2022/11/25 07:49:15;;;;;;;3.83;2.20;;;;;;;;;;5060609;28;20049;-78
2022/11/25 07:52:03;;;;;;;9.82;5.75;;;;;;;;;;5060054;28;20078;-78
2022/11/25 07:54:49;;;;;;;6.75;4.28;;;;;;;;;;5059452;28;20045;-79
2022/11/25 07:57:35;;;;;;;6.93;3.65;;;;;;;;;;5060137;28;20057;-79
2022/11/25 08:00:21;;;;;;;3.65;2.85;;;;;;;;;;5060587;28;20048;-80
2022/11/25 08:03:07;;;;;;;3.72;2.45;;;;;;;;;;5053330;28;20045;-81
2022/11/25 08:05:52;;;;;;;3.25;2.63;;;;;;;;;;5052896;28;20045;-80
2022/11/25 08:08:40;;;;;;;8.23;4.07;;;;;;;;;;5060204;28;20041;-79
2022/11/25 08:11:27;;;;;;;9.93;5.88;;;;;;;;;;5059515;28;20045;-79
2022/11/25 08:14:14;;;;;;;16.30;5.25;;;;;;;;;;5060016;28;20049;-80
2022/11/25 08:17:00;;;;;;;4.60;3.00;;;;;;;;;;5060294;28;20088;-80
2022/11/25 08:19:45;;;;;;;10.00;4.95;;;;;;;;;;5063484;28;20049;-78
2022/11/25 08:22:31;;;;;;;4.20;3.25;;;;;;;;;;5057593;28;20399;-78
2022/11/25 08:25:16;;;;;;;5.15;2.92;;;;;;;;;;5063764;28;20045;-81
2022/11/25 08:28:02;;;;;;;8.10;3.53;;;;;;;;;;5064304;28;20467;-79
2022/11/25 08:30:48;;;;;;;8.45;3.17;;;;;;;;;;5064414;28;20040;-80
2022/11/25 08:33:34;;;;;;;7.28;3.20;;;;;;;;;;5063439;28;20045;-79
2022/11/25 08:36:21;;;;;;;8.13;5.68;;;;;;;;;;5064234;28;20045;-81
2022/11/25 08:39:07;;;;;;;19.48;10.48;;;;;;;;;;5062654;28;20053;-79
2022/11/25 08:41:52;;;;;;;26.63;14.65;;;;;;;;;;5063126;28;20045;-78
2022/11/25 08:44:37;;;;;;;5.10;3.85;;;;;;;;;;5057130;28;20400;-77
2022/11/25 08:47:23;;;;;;;11.27;5.07;;;;;;;;;;5056611;28;20041;-77
2022/11/25 08:50:10;;;;;;;6.43;4.50;;;;;;;;;;5064152;28;20507;-80
2022/11/25 08:52:56;;;;;;;17.35;11.63;;;;;;;;;;5064121;28;20053;-80
2022/11/25 08:55:41;;;;;;;15.40;7.53;;;;;;;;;;5063219;28;20049;-79
2022/11/25 08:58:27;;;;;;;31.52;17.05;;;;;;;;;;5056980;28;20044;-80
2022/11/25 09:01:12;;;;;;;12.82;6.22;;;;;;;;;;5056246;28;20051;-80
2022/11/25 09:03:58;;;;;;;19.55;9.45;;;;;;;;;;5056510;28;20041;-80
2022/11/25 09:06:44;;;;;;;13.77;7.57;;;;;;;;;;5056797;28;20041;-78
2022/11/25 09:09:30;;;;;;;8.35;5.40;;;;;;;;;;5063178;28;20423;-78
2022/11/25 09:12:15;;;;;;;9.70;4.82;;;;;;;;;;5056724;28;20045;-81
2022/11/25 09:15:01;;;;;;;7.95;4.32;;;;;;;;;;5062092;28;20048;-76
2022/11/25 09:17:45;;;;;;;12.00;5.53;;;;;;;;;;5056344;28;20045;-79
2022/11/25 09:20:32;;;;;;;9.98;4.18;;;;;;;;;;5062882;28;20415;-76
2022/11/25 09:23:19;;;;;;;13.82;6.80;;;;;;;;;;5056176;28;20045;-80
2022/11/25 09:26:06;;;;;;;9.48;4.13;;;;;;;;;;5062914;28;20049;-79
2022/11/25 09:28:51;;;;;;;9.00;5.25;;;;;;;;;;5062840;28;20411;-80
2022/11/25 09:31:37;;;;;;;13.73;6.90;;;;;;;;;;5062190;28;20392;-79
2022/11/25 09:34:22;;;;;;;12.40;7.82;;;;;;;;;;5062923;28;20403;-79
2022/11/25 09:37:07;;;;;;;25.00;11.88;;;;;;;;;;5062589;28;20041;-83
2022/11/25 09:39:54;;;;;;;21.08;9.95;;;;;;;;;;5062919;28;20049;-78
2022/11/25 09:46:51;;;;;;;19.70;8.35;;;;;;;;;;5065030;28;20476;-77
2022/11/25 09:49:43;;;;;;;12.88;6.38;;;;;;;;;;5059538;28;20044;-77
2022/11/25 09:52:52;;;;;;;9.55;5.78;;;;;;;;;;5068004;28;20048;-78
2022/11/25 09:55:44;;;;;;;6.22;2.67;;;;;;;;;;5063961;28;20053;-79
2022/11/25 09:58:53;;;;;;;9.77;5.97;;;;;;;;;;5062310;28;20400;-79
2022/11/25 10:01:49;;;;;;;5.00;2.53;;;;;;;;;;5061233;28;20057;-81
2022/11/25 10:04:53;;;;;;;5.68;2.75;;;;;;;;;;5062254;28;20045;-80
2022/11/25 10:07:48;;;;;;;7.60;3.97;;;;;;;;;;5062295;28;20041;-80
2022/11/25 10:10:55;;;;;;;4.90;2.70;;;;;;;;;;5061955;28;20049;-77
2022/11/25 10:14:04;;;;;;;2.95;2.00;;;;;;;;;;5055424;28;20041;-78
2022/11/25 10:17:03;;;;;;;3.75;2.30;;;;;;;;;;5055473;28;20045;-79
2022/11/25 10:19:56;;;;;;;2.20;2.00;;;;;;;;;;5061930;28;20053;-79
2022/11/25 10:22:44;;;;;;;2.58;1.98;;;;;;;;;;5062474;28;20045;-78
2022/11/25 10:25:52;;;;;;;8.95;2.95;;;;;;;;;;5054995;28;20399;-78
2022/11/25 10:28:43;;;;;;;7.75;3.08;;;;;;;;;;5061727;28;20049;-80
2022/11/25 10:31:35;;;;;;;11.13;3.88;;;;;;;;;;5054684;28;20045;-79
2022/11/25 10:34:49;;;;;;;8.32;3.53;;;;;;;;;;5055201;28;20033;-80
2022/11/25 10:37:41;;;;;;;4.75;2.00;;;;;;;;;;5061691;28;20045;-79
2022/11/25 10:40:27;;;;;;;4.25;1.90;;;;;;;;;;5055500;28;20045;-79
2022/11/25 10:43:13;;;;;;;5.25;3.10;;;;;;;;;;5060797;28;20052;-79
2022/11/25 10:46:29;;;;;;;5.07;3.42;;;;;;;;;;5060230;28;20040;-79
2022/11/25 10:49:40;;;;;;;12.68;4.20;;;;;;;;;;5061132;28;20048;-79
2022/11/25 10:52:28;;;;;;;3.88;2.78;;;;;;;;;;5060435;28;20403;-79
2022/11/25 10:55:17;;;;;;;4.70;2.40;;;;;;;;;;5054251;28;20049;-79
2022/11/25 10:58:28;;;;;;;6.70;3.30;;;;;;;;;;5053362;28;20045;-78
2022/11/25 11:01:21;;;;;;;3.78;2.33;;;;;;;;;;5060210;28;20056;-79
2022/11/25 11:04:13;;;;;;;11.35;4.90;;;;;;;;;;5060665;28;20049;-79
2022/11/25 11:07:07;;;;;;;7.68;3.50;;;;;;;;;;5060775;28;20045;-79
2022/11/25 11:09:53;;;;;;;2.83;2.08;;;;;;;;;;5061029;28;20045;-78
2022/11/25 11:13:03;;;;;;;2.65;1.80;;;;;;;;;;5061171;28;20049;-79
2022/11/25 11:15:48;;;;;;;3.53;1.92;;;;;;;;;;5061147;28;20060;-80
2022/11/25 11:18:36;;;;;;;4.93;1.95;;;;;;;;;;5060933;28;20053;-79
2022/11/25 11:21:28;;;;;;;9.48;3.25;;;;;;;;;;5061000;28;20044;-79
2022/11/25 11:24:31;;;;;;;6.90;3.60;;;;;;;;;;5058802;28;20045;-79
2022/11/25 11:27:24;;;;;;;4.38;1.88;;;;;;;;;;5053532;28;20037;-80
2022/11/25 11:30:19;;;;;;;10.88;3.28;;;;;;;;;;5056723;28;20045;-79
2022/11/25 11:33:25;;;;;;;4.97;2.30;;;;;;;;;;5055879;28;20048;-78
2022/11/25 11:36:23;;;;;;;5.30;2.72;;;;;;;;;;5060284;28;20049;-80
2022/11/25 11:39:22;;;;;;;5.28;1.95;;;;;;;;;;5060550;28;20049;-77
2022/11/25 11:42:06;;;;;;;1.90;1.58;;;;;;;;;;5060221;28;20045;-79
2022/11/25 11:45:23;;;;;;;12.25;3.05;;;;;;;;;;5049569;28;20061;-79
2022/11/25 11:48:28;;;;;;;2.63;1.85;;;;;;;;;;5053361;28;20049;-78
2022/11/25 11:51:21;;;;;;;7.05;3.85;;;;;;;;;;5060581;28;20048;-79
2022/11/25 11:54:17;;;;;;;7.27;3.30;;;;;;;;;;5033378;28;20389;-78
2022/11/25 11:57:13;;;;;;;7.47;2.72;;;;;;;;;;5039239;28;20045;-79
2022/11/25 12:00:04;;;;;;;6.40;3.40;;;;;;;;;;5040594;28;20045;-79
2022/11/25 12:03:11;;;;;;;6.85;3.55;;;;;;;;;;5036767;28;20061;-79
2022/11/25 12:06:03;;;;;;;11.30;4.30;;;;;;;;;;5048599;28;20048;-81
2022/11/25 12:09:08;;;;;;;3.45;2.35;;;;;;;;;;5060248;28;20483;-79
2022/11/25 12:12:01;;;;;;;9.05;4.65;;;;;;;;;;5043407;28;20045;-80
2022/11/25 12:14:53;;;;;;;5.82;3.75;;;;;;;;;;5039876;28;20054;-81
2022/11/25 12:17:52;;;;;;;10.00;5.00;;;;;;;;;;5040306;28;20451;-79
2022/11/25 12:20:58;;;;;;;11.82;4.57;;;;;;;;;;5039756;28;20046;-79
2022/11/25 12:24:03;;;;;;;6.38;3.05;;;;;;;;;;5042677;28;20041;-79
2022/11/25 12:27:04;;;;;;;2.35;1.85;;;;;;;;;;5043107;28;20054;-79
2022/11/25 12:30:00;;;;;;;5.28;2.70;;;;;;;;;;5056283;28;20045;-78
2022/11/25 12:33:30;;;;;;;5.28;2.95;;;;;;;;;;5062055;28;20044;-79
2022/11/25 12:36:20;;;;;;;6.53;3.85;;;;;;;;;;5046578;28;20052;-79
2022/11/25 12:39:31;;;;;;;10.80;5.93;;;;;;;;;;5046623;28;20041;-81
2022/11/25 12:42:24;;;;;;;7.50;4.63;;;;;;;;;;5052725;28;20040;-80
2022/11/25 12:45:23;;;;;;;10.02;4.95;;;;;;;;;;5053276;28;20049;-80
2022/11/25 12:48:10;;;;;;;8.10;4.72;;;;;;;;;;5042444;28;20041;-79
2022/11/25 12:51:04;;;;;;;8.18;4.60;;;;;;;;;;5048728;28;20053;-78
2022/11/25 12:53:53;;;;;;;3.28;2.13;;;;;;;;;;5040087;28;20480;-81
2022/11/25 12:57:14;;;;;;;6.18;3.08;;;;;;;;;;5032660;28;20045;-79
2022/11/25 13:00:19;;;;;;;2.40;1.73;;;;;;;;;;5035654;28;20045;-79
2022/11/25 13:03:27;;;;;;;9.35;4.88;;;;;;;;;;5044797;28;20053;-79
2022/11/25 13:06:29;;;;;;;10.52;5.95;;;;;;;;;;5060896;28;20045;-79
2022/11/25 13:09:49;;;;;;;9.15;4.78;;;;;;;;;;5063453;28;20045;-80
2022/11/25 13:13:06;;;;;;;8.38;4.32;;;;;;;;;;5059638;28;20044;-81
2022/11/25 13:15:53;;;;;;;7.13;2.55;;;;;;;;;;5042690;28;20053;-80
2022/11/25 13:18:41;;;;;;;9.90;5.38;;;;;;;;;;5056357;28;20045;-81
2022/11/25 13:21:27;;;;;;;8.70;3.50;;;;;;;;;;5056561;28;20049;-80
2022/11/25 13:24:28;;;;;;;10.65;4.57;;;;;;;;;;5058516;28;20040;-79
2022/11/25 13:27:44;;;;;;;11.50;4.15;;;;;;;;;;5042799;28;20045;-80
2022/11/25 13:30:31;;;;;;;22.52;10.00;;;;;;;;;;5036157;28;20392;-80
2022/11/25 13:33:17;;;;;;;23.70;10.13;;;;;;;;;;5046161;28;20050;-80
2022/11/25 13:36:18;;;;;;;15.40;6.90;;;;;;;;;;5050857;28;20495;-80
2022/11/25 13:39:12;;;;;;;14.45;6.22;;;;;;;;;;5050494;28;20052;-79
2022/11/25 13:41:59;;;;;;;16.20;5.90;;;;;;;;;;5062976;28;20049;-78
2022/11/25 13:44:56;;;;;;;19.90;7.63;;;;;;;;;;5057761;28;20048;-78
2022/11/25 13:47:47;;;;;;;12.68;5.75;;;;;;;;;;5054321;28;20041;-78
2022/11/25 13:50:32;;;;;;;12.25;5.50;;;;;;;;;;5055942;28;20045;-81
2022/11/25 13:53:27;;;;;;;14.77;6.18;;;;;;;;;;5062339;28;20041;-79
2022/11/25 13:56:42;;;;;;;10.32;6.03;;;;;;;;;;5062563;28;20048;-79
2022/11/25 13:59:35;;;;;;;11.73;4.43;;;;;;;;;;5061079;28;20056;-80
2022/11/25 14:02:26;;;;;;;7.93;4.63;;;;;;;;;;5041078;28;20416;-78
2022/11/25 14:05:35;;;;;;;18.02;6.43;;;;;;;;;;5046149;28;20483;-78
2022/11/25 14:08:36;;;;;;;12.18;6.07;;;;;;;;;;5045214;28;20483;-78
2022/11/25 14:11:43;;;;;;;6.60;3.85;;;;;;;;;;5049775;28;20101;-78
2022/11/25 14:14:53;;;;;;;18.98;8.05;;;;;;;;;;5041745;28;20045;-78
2022/11/25 14:18:09;;;;;;;25.27;11.88;;;;;;;;;;5041010;28;20485;-78
2022/11/25 14:21:05;;;;;;;53.47;24.15;;;;;;;;;;5040791;28;20049;-78
2022/11/25 14:23:54;;;;;;;59.55;27.95;;;;;;;;;;5041915;28;20045;-79
2022/11/25 14:26:40;;;;;;;49.10;24.77;;;;;;;;;;5041569;28;20041;-78
2022/11/25 14:29:40;;;;;;;70.20;33.38;;;;;;;;;;5041616;28;20045;-79
2022/11/25 14:32:41;;;;;;;68.82;34.72;;;;;;;;;;5041582;28;20050;-77
2022/11/25 14:35:40;;;;;;;54.53;30.65;;;;;;;;;;5041778;28;20376;-79
2022/11/25 14:38:33;;;;;;;84.47;41.42;;;;;;;;;;5041896;28;20415;-79
2022/11/25 14:41:24;;;;;;;66.00;35.63;;;;;;;;;;5041301;28;20045;-78
2022/11/25 14:44:15;;;;;;;66.10;34.97;;;;;;;;;;5041244;28;20049;-78
2022/11/25 14:47:03;;;;;;;66.13;34.58;;;;;;;;;;5040955;28;20400;-78
2022/11/25 14:49:54;;;;;;;78.22;37.78;;;;;;;;;;5041160;28;20042;-79
2022/11/25 14:52:46;;;;;;;86.13;47.75;;;;;;;;;;5042011;28;20045;-79
2022/11/25 14:55:31;;;;;;;70.88;40.33;;;;;;;;;;5041352;28;20053;-78
2022/11/25 14:58:17;;;;;;;82.90;42.00;;;;;;;;;;5040991;28;20041;-79
2022/11/25 15:01:15;;;;;;;84.15;43.05;;;;;;;;;;5040447;28;20049;-78
2022/11/25 15:04:24;;;;;;;72.07;34.53;;;;;;;;;;5054747;28;20476;-79
2022/11/25 15:07:18;;;;;;;97.70;44.63;;;;;;;;;;5050529;28;20041;-77
2022/11/25 15:10:03;;;;;;;129.15;53.08;;;;;;;;;;5065494;28;20041;-76
2022/11/25 15:12:48;;;;;;;76.13;37.38;;;;;;;;;;5061800;28;20044;-78
2022/11/25 15:15:34;;;;;;;78.90;37.03;;;;;;;;;;5053875;28;20423;-77
2022/11/25 15:18:22;;;;;;;64.47;34.75;;;;;;;;;;5058090;28;20403;-77
2022/11/25 15:21:13;;;;;;;145.77;59.05;;;;;;;;;;5063801;28;20053;-79
2022/11/25 15:23:59;;;;;;;270.17;136.80;;;;;;;;;;5058792;28;20045;-77
2022/11/25 15:26:50;;;;;;;300.65;158.88;;;;;;;;;;5059857;28;20044;-76
2022/11/25 15:29:40;;;;;;;243.77;111.35;;;;;;;;;;5058738;28;20041;-77
2022/11/25 15:32:31;;;;;;;277.65;122.07;;;;;;;;;;5051646;28;20037;-76
2022/11/25 15:35:20;;;;;;;171.20;76.50;;;;;;;;;;5058463;28;20044;-78
2022/11/25 15:38:17;;;;;;;165.40;77.65;;;;;;;;;;5058653;28;20467;-76
2022/11/25 15:41:16;;;;;;;140.45;67.85;;;;;;;;;;5058576;28;20403;-77
2022/11/25 15:44:05;;;;;;;120.40;59.90;;;;;;;;;;5059472;28;20037;-79
2022/11/25 15:47:01;;;;;;;125.57;60.22;;;;;;;;;;5060099;28;20049;-80
2022/11/25 15:50:24;;;;;;;226.20;111.72;;;;;;;;;;5060187;28;20044;-77
2022/11/25 15:53:22;;;;;;;215.98;112.63;;;;;;;;;;5059603;28;20045;-78
2022/11/25 15:56:12;;;;;;;136.63;63.17;;;;;;;;;;5058532;28;20057;-77
2022/11/25 15:58:57;;;;;;;172.07;78.72;;;;;;;;;;5059890;28;20041;-77
2022/11/25 16:01:43;;;;;;;189.88;89.15;;;;;;;;;;5057156;28;20052;-79
2022/11/25 16:04:28;;;;;;;141.75;71.68;;;;;;;;;;5059955;28;20037;-80
2022/11/25 16:07:21;;;;;;;109.32;51.45;;;;;;;;;;5060124;28;20052;-79
2022/11/25 16:10:31;;;;;;;100.13;50.15;;;;;;;;;;5060265;28;20041;-82
2022/11/25 16:13:20;;;;;;;113.97;55.08;;;;;;;;;;5060136;28;20391;-79
2022/11/25 16:16:06;;;;;;;87.75;40.38;;;;;;;;;;5060777;28;20053;-78
2022/11/25 16:18:57;;;;;;;125.85;49.78;;;;;;;;;;5058848;28;20052;-78
2022/11/25 16:21:57;;;;;;;162.07;74.00;;;;;;;;;;5059044;28;20410;-79
2022/11/25 16:24:49;;;;;;;149.07;70.55;;;;;;;;;;5052735;28;20450;-78
2022/11/25 16:27:36;;;;;;;193.48;95.00;;;;;;;;;;5059500;28;20045;-77
2022/11/25 16:30:22;;;;;;;149.00;75.43;;;;;;;;;;5053037;28;20472;-77
2022/11/25 16:33:09;;;;;;;154.02;68.93;;;;;;;;;;5059899;28;20045;-77
2022/11/25 16:35:55;;;;;;;129.98;62.67;;;;;;;;;;5060145;28;20057;-76
2022/11/25 16:38:40;;;;;;;110.35;52.60;;;;;;;;;;5053292;28;20041;-77
2022/11/25 16:41:26;;;;;;;119.00;59.63;;;;;;;;;;5064184;28;20049;-77
2022/11/25 16:44:20;;;;;;;106.68;51.95;;;;;;;;;;5063568;28;20041;-76
2022/11/25 16:47:09;;;;;;;81.93;41.50;;;;;;;;;;5063520;28;20479;-77
2022/11/25 16:49:55;;;;;;;328.42;143.65;;;;;;;;;;5057613;28;20471;-79
2022/11/25 16:52:41;;;;;;;307.17;139.77;;;;;;;;;;5063601;28;20053;-79